createdAt,value
2023-01-22T00:15:48.802Z,0.51
2023-01-22T00:35:48.745Z,0.5
2023-01-22T01:15:48.708Z,0.41
2023-01-22T01:35:48.652Z,0.41
2023-01-22T01:55:48.629Z,0.43
2023-01-22T02:15:48.595Z,0.44
2023-01-22T02:35:48.583Z,0.43
2023-01-22T02:55:48.556Z,0.42
2023-01-22T03:15:48.535Z,0.23
2023-01-22T03:35:48.517Z,0.11
2023-01-22T03:55:48.502Z,-0.06
2023-01-22T04:15:48.479Z,-0.09
2023-01-22T04:35:48.457Z,-0.13
2023-01-22T04:55:48.442Z,-0.14
2023-01-22T05:15:48.443Z,-0.07
2023-01-22T05:35:48.406Z,-0.04
2023-01-22T05:55:48.375Z,-0.04
2023-01-22T06:15:48.415Z,-0.03
2023-01-22T06:35:48.327Z,-0.13
2023-01-22T06:55:48.315Z,-0.21
2023-01-22T07:15:48.347Z,-0.26
2023-01-22T07:35:48.270Z,-0.21
2023-01-22T07:55:48.251Z,-0.15
2023-01-22T08:15:48.264Z,-0.05
2023-01-22T08:35:48.199Z,0.02
2023-01-22T08:55:48.210Z,0.16
2023-01-22T09:15:48.178Z,0.28
2023-01-22T09:35:48.156Z,0.43
2023-01-22T09:55:48.136Z,0.55
2023-01-22T10:15:48.103Z,0.71
2023-01-22T10:35:48.094Z,0.78
2023-01-22T10:55:48.059Z,0.72
2023-01-22T11:15:48.058Z,0.79
2023-01-22T11:35:48.026Z,0.95
2023-01-22T11:55:47.990Z,1.3
2023-01-22T12:15:48.002Z,1.28
2023-01-22T12:35:47.966Z,1.21
2023-01-22T12:55:47.933Z,1.21
2023-01-22T13:15:47.912Z,1.27
2023-01-22T13:35:47.881Z,1.38
2023-01-22T13:55:47.860Z,1.33
2023-01-22T14:35:47.833Z,1.32
2023-01-22T15:55:47.725Z,1.08
2023-01-22T16:15:48.003Z,1.06
2023-01-22T16:35:47.687Z,1.05
2023-01-22T17:15:47.707Z,1.08
2023-01-22T17:35:47.617Z,1.11
2023-01-22T17:55:47.612Z,1.15
2023-01-22T18:15:47.617Z,1.24
2023-01-22T18:35:47.536Z,1.27
2023-01-22T18:55:47.566Z,1.27
2023-01-22T19:15:47.490Z,1.29
2023-01-22T19:55:47.452Z,1.37
2023-01-22T20:15:47.483Z,1.44
2023-01-22T20:35:47.403Z,1.49
2023-01-22T20:55:47.413Z,1.5
2023-01-22T21:15:47.346Z,1.56
2023-01-22T21:35:47.343Z,1.61
2023-01-22T21:55:47.296Z,1.68
2023-01-22T22:15:47.273Z,1.76
2023-01-22T22:35:47.256Z,1.79
2023-01-22T22:55:47.234Z,1.83
2023-01-22T23:15:47.190Z,1.85
2023-01-22T23:35:47.254Z,1.87
2023-01-22T23:55:47.165Z,1.88
